sensor_id;sensor_type;location;lat;lon;timestamp;temperature;humidity
20650;DHT22;10484;48.736;9.332;2023-04-15T00:00:15;7.20;1.00
20650;DHT22;10484;48.736;9.332;2023-04-15T00:02:42;7.20;1.00
20650;DHT22;10484;48.736;9.332;2023-04-15T00:05:08;7.20;1.00
20650;DHT22;10484;48.736;9.332;2023-04-15T00:07:34;7.10;1.00
20650;DHT22;10484;48.736;9.332;2023-04-15T00:10:00;7.10;1.00
20650;DHT22;10484;48.736;9.332;2023-04-15T00:12:27;7.10;1.00
20650;DHT22;10484;48.736;9.332;2023-04-15T00:14:53;7.10;1.00
20650;DHT22;10484;48.736;9.332;2023-04-15T00:17:19;7.00;1.00
20650;DHT22;10484;48.736;9.332;2023-04-15T00:19:44;7.00;1.00
20650;DHT22;10484;48.736;9.332;2023-04-15T00:22:10;7.00;1.00
20650;DHT22;10484;48.736;9.332;2023-04-15T00:24:36;6.90;1.00
20650;DHT22;10484;48.736;9.332;2023-04-15T00:27:02;6.80;1.00
20650;DHT22;10484;48.736;9.332;2023-04-15T00:29:29;6.80;1.00
20650;DHT22;10484;48.736;9.332;2023-04-15T00:31:55;6.70;1.00
20650;DHT22;10484;48.736;9.332;2023-04-15T00:34:21;6.70;1.00
20650;DHT22;10484;48.736;9.332;2023-04-15T00:36:47;6.70;1.00
20650;DHT22;10484;48.736;9.332;2023-04-15T00:39:13;6.60;1.00
20650;DHT22;10484;48.736;9.332;2023-04-15T00:41:40;6.60;1.00
20650;DHT22;10484;48.736;9.332;2023-04-15T00:44:06;6.60;1.00
20650;DHT22;10484;48.736;9.332;2023-04-15T00:46:34;6.60;1.00
20650;DHT22;10484;48.736;9.332;2023-04-15T00:49:02;6.60;1.00
20650;DHT22;10484;48.736;9.332;2023-04-15T00:51:28;6.60;1.00
20650;DHT22;10484;48.736;9.332;2023-04-15T00:53:53;6.60;1.00
20650;DHT22;10484;48.736;9.332;2023-04-15T00:56:20;6.60;1.00
20650;DHT22;10484;48.736;9.332;2023-04-15T00:58:49;6.50;1.00
20650;DHT22;10484;48.736;9.332;2023-04-15T01:01:17;6.50;1.00
20650;DHT22;10484;48.736;9.332;2023-04-15T01:03:46;6.50;1.00
20650;DHT22;10484;48.736;9.332;2023-04-15T01:06:11;6.40;1.00
20650;DHT22;10484;48.736;9.332;2023-04-15T01:08:38;6.40;1.00
20650;DHT22;10484;48.736;9.332;2023-04-15T01:11:04;6.40;1.00
20650;DHT22;10484;48.736;9.332;2023-04-15T01:13:30;6.30;1.00
20650;DHT22;10484;48.736;9.332;2023-04-15T01:15:57;6.20;1.00
20650;DHT22;10484;48.736;9.332;2023-04-15T01:18:23;6.10;1.00
20650;DHT22;10484;48.736;9.332;2023-04-15T01:20:49;6.00;1.00
20650;DHT22;10484;48.736;9.332;2023-04-15T01:23:15;5.90;1.00
20650;DHT22;10484;48.736;9.332;2023-04-15T01:25:42;5.80;1.00
20650;DHT22;10484;48.736;9.332;2023-04-15T01:28:08;5.80;1.00
20650;DHT22;10484;48.736;9.332;2023-04-15T01:30:35;5.80;1.00
20650;DHT22;10484;48.736;9.332;2023-04-15T01:33:01;5.80;1.00
20650;DHT22;10484;48.736;9.332;2023-04-15T01:35:27;5.80;1.00
20650;DHT22;10484;48.736;9.332;2023-04-15T01:37:53;5.80;1.00
20650;DHT22;10484;48.736;9.332;2023-04-15T01:40:19;5.70;1.00
20650;DHT22;10484;48.736;9.332;2023-04-15T01:42:45;5.70;1.00
20650;DHT22;10484;48.736;9.332;2023-04-15T01:45:11;5.70;1.00
20650;DHT22;10484;48.736;9.332;2023-04-15T01:47:38;5.70;1.00
20650;DHT22;10484;48.736;9.332;2023-04-15T01:50:04;5.70;1.00
20650;DHT22;10484;48.736;9.332;2023-04-15T01:52:31;5.60;1.00
20650;DHT22;10484;48.736;9.332;2023-04-15T01:54:56;5.60;1.00
20650;DHT22;10484;48.736;9.332;2023-04-15T01:57:22;5.50;1.00
20650;DHT22;10484;48.736;9.332;2023-04-15T01:59:48;5.50;1.00
20650;DHT22;10484;48.736;9.332;2023-04-15T02:02:13;5.50;1.00
20650;DHT22;10484;48.736;9.332;2023-04-15T02:04:39;5.50;1.00
20650;DHT22;10484;48.736;9.332;2023-04-15T02:07:05;5.40;1.00
20650;DHT22;10484;48.736;9.332;2023-04-15T02:09:31;5.40;1.00
20650;DHT22;10484;48.736;9.332;2023-04-15T02:11:57;5.40;1.00
20650;DHT22;10484;48.736;9.332;2023-04-15T02:14:22;5.30;1.00
20650;DHT22;10484;48.736;9.332;2023-04-15T02:16:48;5.30;1.00
20650;DHT22;10484;48.736;9.332;2023-04-15T02:19:13;5.30;1.00
20650;DHT22;10484;48.736;9.332;2023-04-15T02:21:40;5.30;1.00
20650;DHT22;10484;48.736;9.332;2023-04-15T02:24:06;5.30;1.00
20650;DHT22;10484;48.736;9.332;2023-04-15T02:26:31;5.20;1.00
20650;DHT22;10484;48.736;9.332;2023-04-15T02:28:58;5.20;1.00
20650;DHT22;10484;48.736;9.332;2023-04-15T02:31:24;5.20;1.00
20650;DHT22;10484;48.736;9.332;2023-04-15T02:33:50;5.10;1.00
20650;DHT22;10484;48.736;9.332;2023-04-15T02:36:16;5.10;1.00
20650;DHT22;10484;48.736;9.332;2023-04-15T02:38:41;5.10;1.00
20650;DHT22;10484;48.736;9.332;2023-04-15T02:41:10;5.10;1.00
20650;DHT22;10484;48.736;9.332;2023-04-15T02:43:36;5.00;1.00
20650;DHT22;10484;48.736;9.332;2023-04-15T02:46:02;5.00;1.00
20650;DHT22;10484;48.736;9.332;2023-04-15T02:48:28;5.00;1.00
20650;DHT22;10484;48.736;9.332;2023-04-15T02:50:53;5.00;1.00
20650;DHT22;10484;48.736;9.332;2023-04-15T02:53:34;5.00;1.00
20650;DHT22;10484;48.736;9.332;2023-04-15T02:56:00;4.90;1.00
20650;DHT22;10484;48.736;9.332;2023-04-15T02:58:26;4.80;1.00
20650;DHT22;10484;48.736;9.332;2023-04-15T03:00:51;4.80;1.00
20650;DHT22;10484;48.736;9.332;2023-04-15T03:03:17;4.80;1.00
20650;DHT22;10484;48.736;9.332;2023-04-15T03:05:43;4.70;1.00
20650;DHT22;10484;48.736;9.332;2023-04-15T03:08:09;4.70;1.00
20650;DHT22;10484;48.736;9.332;2023-04-15T03:10:34;4.70;1.00
20650;DHT22;10484;48.736;9.332;2023-04-15T03:13:00;4.70;1.00
20650;DHT22;10484;48.736;9.332;2023-04-15T03:15:25;4.60;1.00
20650;DHT22;10484;48.736;9.332;2023-04-15T03:17:51;4.60;1.00
20650;DHT22;10484;48.736;9.332;2023-04-15T03:20:17;4.60;1.00
20650;DHT22;10484;48.736;9.332;2023-04-15T03:22:42;4.70;1.00
20650;DHT22;10484;48.736;9.332;2023-04-15T03:25:08;4.70;1.00
20650;DHT22;10484;48.736;9.332;2023-04-15T03:27:34;4.70;1.00
20650;DHT22;10484;48.736;9.332;2023-04-15T03:29:59;4.60;1.00
20650;DHT22;10484;48.736;9.332;2023-04-15T03:32:25;4.60;1.00
20650;DHT22;10484;48.736;9.332;2023-04-15T03:34:51;4.50;1.00
20650;DHT22;10484;48.736;9.332;2023-04-15T03:37:17;4.60;1.00
20650;DHT22;10484;48.736;9.332;2023-04-15T03:39:42;4.50;1.00
20650;DHT22;10484;48.736;9.332;2023-04-15T03:42:08;4.50;1.00
20650;DHT22;10484;48.736;9.332;2023-04-15T03:44:33;4.40;1.00
20650;DHT22;10484;48.736;9.332;2023-04-15T03:46:59;4.40;1.00
20650;DHT22;10484;48.736;9.332;2023-04-15T03:49:25;4.40;1.00
20650;DHT22;10484;48.736;9.332;2023-04-15T03:51:50;4.50;1.00
20650;DHT22;10484;48.736;9.332;2023-04-15T03:54:16;4.50;1.00
20650;DHT22;10484;48.736;9.332;2023-04-15T03:56:42;4.40;1.00
20650;DHT22;10484;48.736;9.332;2023-04-15T03:59:07;4.40;1.00
20650;DHT22;10484;48.736;9.332;2023-04-15T04:01:33;4.30;1.00
20650;DHT22;10484;48.736;9.332;2023-04-15T04:03:58;4.30;1.00
20650;DHT22;10484;48.736;9.332;2023-04-15T04:06:24;4.20;1.00
20650;DHT22;10484;48.736;9.332;2023-04-15T04:08:50;4.20;1.00
20650;DHT22;10484;48.736;9.332;2023-04-15T04:11:16;4.20;1.00
20650;DHT22;10484;48.736;9.332;2023-04-15T04:13:41;4.20;1.00
20650;DHT22;10484;48.736;9.332;2023-04-15T04:16:07;4.20;1.00
20650;DHT22;10484;48.736;9.332;2023-04-15T04:18:32;4.20;1.00
20650;DHT22;10484;48.736;9.332;2023-04-15T04:20:58;4.20;1.00
20650;DHT22;10484;48.736;9.332;2023-04-15T04:23:24;4.20;1.00
20650;DHT22;10484;48.736;9.332;2023-04-15T04:25:50;4.20;1.00
20650;DHT22;10484;48.736;9.332;2023-04-15T04:28:15;4.20;1.00
20650;DHT22;10484;48.736;9.332;2023-04-15T04:30:41;4.20;1.00
20650;DHT22;10484;48.736;9.332;2023-04-15T04:33:07;4.20;1.00
20650;DHT22;10484;48.736;9.332;2023-04-15T04:35:32;4.10;1.00
20650;DHT22;10484;48.736;9.332;2023-04-15T04:38:00;4.10;1.00
20650;DHT22;10484;48.736;9.332;2023-04-15T04:40:26;4.10;1.00
20650;DHT22;10484;48.736;9.332;2023-04-15T04:42:52;4.10;1.00
20650;DHT22;10484;48.736;9.332;2023-04-15T04:45:18;4.10;1.00
20650;DHT22;10484;48.736;9.332;2023-04-15T04:47:44;4.10;1.00
20650;DHT22;10484;48.736;9.332;2023-04-15T04:50:09;4.00;1.00
20650;DHT22;10484;48.736;9.332;2023-04-15T04:52:35;4.00;1.00
20650;DHT22;10484;48.736;9.332;2023-04-15T04:55:01;4.00;1.00
20650;DHT22;10484;48.736;9.332;2023-04-15T04:57:27;4.00;1.00
20650;DHT22;10484;48.736;9.332;2023-04-15T04:59:52;4.00;1.00
20650;DHT22;10484;48.736;9.332;2023-04-15T05:02:18;3.90;1.00
20650;DHT22;10484;48.736;9.332;2023-04-15T05:04:43;3.90;1.00
20650;DHT22;10484;48.736;9.332;2023-04-15T05:07:09;3.90;1.00
20650;DHT22;10484;48.736;9.332;2023-04-15T05:09:35;3.90;1.00
20650;DHT22;10484;48.736;9.332;2023-04-15T05:12:02;3.90;1.00
20650;DHT22;10484;48.736;9.332;2023-04-15T05:14:27;3.90;1.00
20650;DHT22;10484;48.736;9.332;2023-04-15T05:16:53;3.90;1.00
20650;DHT22;10484;48.736;9.332;2023-04-15T05:19:19;3.80;1.00
20650;DHT22;10484;48.736;9.332;2023-04-15T05:21:44;3.80;1.00
20650;DHT22;10484;48.736;9.332;2023-04-15T05:24:10;3.80;1.00
20650;DHT22;10484;48.736;9.332;2023-04-15T05:26:35;3.70;1.00
20650;DHT22;10484;48.736;9.332;2023-04-15T05:29:01;3.70;1.00
20650;DHT22;10484;48.736;9.332;2023-04-15T05:31:27;3.70;1.00
20650;DHT22;10484;48.736;9.332;2023-04-15T05:33:52;3.70;1.00
20650;DHT22;10484;48.736;9.332;2023-04-15T05:36:18;3.70;1.00
20650;DHT22;10484;48.736;9.332;2023-04-15T05:38:43;3.70;1.00
20650;DHT22;10484;48.736;9.332;2023-04-15T05:41:09;3.70;1.00
20650;DHT22;10484;48.736;9.332;2023-04-15T05:43:34;3.70;1.00
20650;DHT22;10484;48.736;9.332;2023-04-15T05:46:00;3.70;1.00
20650;DHT22;10484;48.736;9.332;2023-04-15T05:48:26;3.70;1.00
20650;DHT22;10484;48.736;9.332;2023-04-15T05:50:51;3.70;1.00
20650;DHT22;10484;48.736;9.332;2023-04-15T05:53:17;3.70;1.00
20650;DHT22;10484;48.736;9.332;2023-04-15T05:55:42;3.70;1.00
20650;DHT22;10484;48.736;9.332;2023-04-15T05:58:08;3.70;1.00
20650;DHT22;10484;48.736;9.332;2023-04-15T06:00:33;3.70;1.00
20650;DHT22;10484;48.736;9.332;2023-04-15T06:02:59;3.70;1.00
20650;DHT22;10484;48.736;9.332;2023-04-15T06:05:25;3.80;1.00
20650;DHT22;10484;48.736;9.332;2023-04-15T06:07:50;3.80;1.00
20650;DHT22;10484;48.736;9.332;2023-04-15T06:10:16;3.80;1.00
20650;DHT22;10484;48.736;9.332;2023-04-15T06:12:42;3.80;1.00
20650;DHT22;10484;48.736;9.332;2023-04-15T06:15:08;3.90;1.00
20650;DHT22;10484;48.736;9.332;2023-04-15T06:17:35;3.90;1.00
20650;DHT22;10484;48.736;9.332;2023-04-15T06:20:01;4.00;1.00
20650;DHT22;10484;48.736;9.332;2023-04-15T06:22:26;4.00;1.00
20650;DHT22;10484;48.736;9.332;2023-04-15T06:24:52;4.00;1.00
20650;DHT22;10484;48.736;9.332;2023-04-15T06:27:18;4.10;1.00
20650;DHT22;10484;48.736;9.332;2023-04-15T06:29:44;4.10;1.00
20650;DHT22;10484;48.736;9.332;2023-04-15T06:32:09;4.10;1.00
20650;DHT22;10484;48.736;9.332;2023-04-15T06:34:35;4.20;1.00
20650;DHT22;10484;48.736;9.332;2023-04-15T06:37:01;4.20;1.00
20650;DHT22;10484;48.736;9.332;2023-04-15T06:39:26;4.20;1.00
20650;DHT22;10484;48.736;9.332;2023-04-15T06:41:52;4.30;1.00
20650;DHT22;10484;48.736;9.332;2023-04-15T06:44:18;4.30;1.00
20650;DHT22;10484;48.736;9.332;2023-04-15T06:46:43;4.30;1.00
20650;DHT22;10484;48.736;9.332;2023-04-15T06:49:09;4.40;1.00
20650;DHT22;10484;48.736;9.332;2023-04-15T06:51:36;4.40;1.00
20650;DHT22;10484;48.736;9.332;2023-04-15T06:54:03;4.50;1.00
20650;DHT22;10484;48.736;9.332;2023-04-15T06:56:31;4.50;1.00
20650;DHT22;10484;48.736;9.332;2023-04-15T06:58:57;4.50;1.00
20650;DHT22;10484;48.736;9.332;2023-04-15T07:01:23;4.50;1.00
20650;DHT22;10484;48.736;9.332;2023-04-15T07:03:48;4.60;1.00
20650;DHT22;10484;48.736;9.332;2023-04-15T07:06:14;4.60;1.00
20650;DHT22;10484;48.736;9.332;2023-04-15T07:08:39;4.60;1.00
20650;DHT22;10484;48.736;9.332;2023-04-15T07:11:05;4.60;1.00
20650;DHT22;10484;48.736;9.332;2023-04-15T07:13:31;4.60;1.00
20650;DHT22;10484;48.736;9.332;2023-04-15T07:15:57;4.60;1.00
20650;DHT22;10484;48.736;9.332;2023-04-15T07:18:23;4.70;1.00
20650;DHT22;10484;48.736;9.332;2023-04-15T07:20:48;4.70;1.00
20650;DHT22;10484;48.736;9.332;2023-04-15T07:23:14;4.70;1.00
20650;DHT22;10484;48.736;9.332;2023-04-15T07:25:40;4.70;1.00
20650;DHT22;10484;48.736;9.332;2023-04-15T07:28:06;4.70;1.00
20650;DHT22;10484;48.736;9.332;2023-04-15T07:30:31;4.80;1.00
20650;DHT22;10484;48.736;9.332;2023-04-15T07:32:57;4.80;1.00
20650;DHT22;10484;48.736;9.332;2023-04-15T07:35:23;4.80;1.00
20650;DHT22;10484;48.736;9.332;2023-04-15T07:37:50;4.90;1.00
20650;DHT22;10484;48.736;9.332;2023-04-15T07:40:16;4.90;1.00
20650;DHT22;10484;48.736;9.332;2023-04-15T07:42:42;4.90;1.00
20650;DHT22;10484;48.736;9.332;2023-04-15T07:45:08;5.00;1.00
20650;DHT22;10484;48.736;9.332;2023-04-15T07:47:34;5.10;1.00
20650;DHT22;10484;48.736;9.332;2023-04-15T07:50:00;5.10;1.00
20650;DHT22;10484;48.736;9.332;2023-04-15T07:52:26;5.20;1.00
20650;DHT22;10484;48.736;9.332;2023-04-15T07:54:52;5.20;1.00
20650;DHT22;10484;48.736;9.332;2023-04-15T07:57:18;5.30;1.00
20650;DHT22;10484;48.736;9.332;2023-04-15T07:59:43;5.40;1.00
20650;DHT22;10484;48.736;9.332;2023-04-15T08:02:10;5.50;1.00
20650;DHT22;10484;48.736;9.332;2023-04-15T08:04:35;5.60;1.00
20650;DHT22;10484;48.736;9.332;2023-04-15T08:07:02;5.70;1.00
20650;DHT22;10484;48.736;9.332;2023-04-15T08:09:28;5.80;1.00
20650;DHT22;10484;48.736;9.332;2023-04-15T08:11:53;5.90;1.00
20650;DHT22;10484;48.736;9.332;2023-04-15T08:14:19;6.00;1.00
20650;DHT22;10484;48.736;9.332;2023-04-15T08:16:45;6.10;1.00
20650;DHT22;10484;48.736;9.332;2023-04-15T08:19:10;6.20;1.00
20650;DHT22;10484;48.736;9.332;2023-04-15T08:21:36;6.30;1.00
20650;DHT22;10484;48.736;9.332;2023-04-15T08:24:02;6.50;1.00
20650;DHT22;10484;48.736;9.332;2023-04-15T08:26:27;6.60;1.00
20650;DHT22;10484;48.736;9.332;2023-04-15T08:28:53;6.70;1.00
20650;DHT22;10484;48.736;9.332;2023-04-15T08:31:19;6.80;1.00
20650;DHT22;10484;48.736;9.332;2023-04-15T08:33:45;6.90;1.00
20650;DHT22;10484;48.736;9.332;2023-04-15T08:36:11;7.00;1.00
20650;DHT22;10484;48.736;9.332;2023-04-15T08:38:38;7.20;1.00
20650;DHT22;10484;48.736;9.332;2023-04-15T08:41:10;7.30;1.00
20650;DHT22;10484;48.736;9.332;2023-04-15T08:43:46;7.40;1.00
20650;DHT22;10484;48.736;9.332;2023-04-15T08:46:14;7.50;1.00
20650;DHT22;10484;48.736;9.332;2023-04-15T08:48:41;7.70;1.00
20650;DHT22;10484;48.736;9.332;2023-04-15T08:51:07;7.80;1.00
20650;DHT22;10484;48.736;9.332;2023-04-15T08:53:33;8.00;1.00
20650;DHT22;10484;48.736;9.332;2023-04-15T08:56:02;8.10;1.00
20650;DHT22;10484;48.736;9.332;2023-04-15T08:58:29;8.30;1.00
20650;DHT22;10484;48.736;9.332;2023-04-15T09:00:56;8.50;1.00
20650;DHT22;10484;48.736;9.332;2023-04-15T09:03:21;8.60;1.00
20650;DHT22;10484;48.736;9.332;2023-04-15T09:05:49;8.70;1.00
20650;DHT22;10484;48.736;9.332;2023-04-15T09:08:15;8.90;1.00
20650;DHT22;10484;48.736;9.332;2023-04-15T09:10:41;9.00;1.00
20650;DHT22;10484;48.736;9.332;2023-04-15T09:13:06;9.10;1.00
20650;DHT22;10484;48.736;9.332;2023-04-15T09:15:35;9.30;1.00
20650;DHT22;10484;48.736;9.332;2023-04-15T09:18:02;9.50;1.00
20650;DHT22;10484;48.736;9.332;2023-04-15T09:20:28;9.70;1.00
20650;DHT22;10484;48.736;9.332;2023-04-15T09:22:54;9.80;1.00
20650;DHT22;10484;48.736;9.332;2023-04-15T09:28:01;10.10;1.00
20650;DHT22;10484;48.736;9.332;2023-04-15T09:30:28;10.30;1.00
20650;DHT22;10484;48.736;9.332;2023-04-15T09:32:56;10.50;1.00
20650;DHT22;10484;48.736;9.332;2023-04-15T09:35:23;10.60;1.00
20650;DHT22;10484;48.736;9.332;2023-04-15T09:37:50;10.80;1.00
20650;DHT22;10484;48.736;9.332;2023-04-15T09:42:56;11.10;1.00
20650;DHT22;10484;48.736;9.332;2023-04-15T09:45:23;11.20;1.00
20650;DHT22;10484;48.736;9.332;2023-04-15T09:47:48;11.30;1.00
20650;DHT22;10484;48.736;9.332;2023-04-15T09:50:18;11.30;1.00
20650;DHT22;10484;48.736;9.332;2023-04-15T09:52:44;11.40;1.00
20650;DHT22;10484;48.736;9.332;2023-04-15T09:55:11;11.50;1.00
20650;DHT22;10484;48.736;9.332;2023-04-15T09:57:38;11.50;1.00
20650;DHT22;10484;48.736;9.332;2023-04-15T10:00:07;11.60;1.00
20650;DHT22;10484;48.736;9.332;2023-04-15T10:02:33;11.60;1.00
20650;DHT22;10484;48.736;9.332;2023-04-15T10:05:01;11.70;1.00
20650;DHT22;10484;48.736;9.332;2023-04-15T10:07:27;11.90;1.00
20650;DHT22;10484;48.736;9.332;2023-04-15T10:09:53;11.90;1.00
20650;DHT22;10484;48.736;9.332;2023-04-15T10:12:19;12.00;1.00
20650;DHT22;10484;48.736;9.332;2023-04-15T10:14:57;12.00;1.00
20650;DHT22;10484;48.736;9.332;2023-04-15T10:17:26;12.00;1.00
20650;DHT22;10484;48.736;9.332;2023-04-15T10:19:53;12.00;1.00
20650;DHT22;10484;48.736;9.332;2023-04-15T10:22:21;12.10;1.00
20650;DHT22;10484;48.736;9.332;2023-04-15T10:24:47;12.10;1.00
20650;DHT22;10484;48.736;9.332;2023-04-15T10:27:13;12.20;1.00
20650;DHT22;10484;48.736;9.332;2023-04-15T10:29:39;12.30;1.00
20650;DHT22;10484;48.736;9.332;2023-04-15T10:32:05;12.40;1.00
20650;DHT22;10484;48.736;9.332;2023-04-15T10:34:31;12.50;1.00
20650;DHT22;10484;48.736;9.332;2023-04-15T10:37:00;12.70;1.00
20650;DHT22;10484;48.736;9.332;2023-04-15T10:42:06;12.80;1.00
20650;DHT22;10484;48.736;9.332;2023-04-15T10:44:32;12.80;1.00
20650;DHT22;10484;48.736;9.332;2023-04-15T10:46:57;12.80;1.00
20650;DHT22;10484;48.736;9.332;2023-04-15T10:49:24;12.90;1.00
20650;DHT22;10484;48.736;9.332;2023-04-15T10:51:52;12.90;1.00
20650;DHT22;10484;48.736;9.332;2023-04-15T11:00:00;13.10;1.00
20650;DHT22;10484;48.736;9.332;2023-04-15T11:02:47;13.20;1.00
20650;DHT22;10484;48.736;9.332;2023-04-15T11:05:16;13.40;1.00
20650;DHT22;10484;48.736;9.332;2023-04-15T11:12:42;13.50;1.00
20650;DHT22;10484;48.736;9.332;2023-04-15T11:20:40;13.50;1.00
20650;DHT22;10484;48.736;9.332;2023-04-15T11:23:05;13.50;1.00
20650;DHT22;10484;48.736;9.332;2023-04-15T11:25:33;13.60;1.00
20650;DHT22;10484;48.736;9.332;2023-04-15T11:28:00;13.60;1.00
20650;DHT22;10484;48.736;9.332;2023-04-15T11:30:29;13.60;1.00
20650;DHT22;10484;48.736;9.332;2023-04-15T11:33:00;13.60;1.00
20650;DHT22;10484;48.736;9.332;2023-04-15T11:35:26;13.60;1.00
20650;DHT22;10484;48.736;9.332;2023-04-15T11:37:51;13.60;1.00
20650;DHT22;10484;48.736;9.332;2023-04-15T11:40:25;13.70;1.00
20650;DHT22;10484;48.736;9.332;2023-04-15T11:43:16;13.70;1.00
20650;DHT22;10484;48.736;9.332;2023-04-15T11:45:55;13.80;1.00
20650;DHT22;10484;48.736;9.332;2023-04-15T11:48:26;13.90;1.00
20650;DHT22;10484;48.736;9.332;2023-04-15T11:51:04;13.90;1.00
20650;DHT22;10484;48.736;9.332;2023-04-15T11:53:38;14.00;1.00
20650;DHT22;10484;48.736;9.332;2023-04-15T11:56:04;13.90;1.00
20650;DHT22;10484;48.736;9.332;2023-04-15T11:58:30;13.90;1.00
20650;DHT22;10484;48.736;9.332;2023-04-15T12:00:59;13.80;1.00
20650;DHT22;10484;48.736;9.332;2023-04-15T12:03:42;13.70;1.00
20650;DHT22;10484;48.736;9.332;2023-04-15T12:06:21;13.60;1.00
20650;DHT22;10484;48.736;9.332;2023-04-15T12:08:57;13.50;1.00
20650;DHT22;10484;48.736;9.332;2023-04-15T12:13:55;13.40;1.00
20650;DHT22;10484;48.736;9.332;2023-04-15T12:16:21;13.50;1.00
20650;DHT22;10484;48.736;9.332;2023-04-15T12:18:51;13.60;1.00
20650;DHT22;10484;48.736;9.332;2023-04-15T12:21:26;13.70;1.00
20650;DHT22;10484;48.736;9.332;2023-04-15T12:23:56;13.70;1.00
20650;DHT22;10484;48.736;9.332;2023-04-15T12:26:29;13.80;1.00
20650;DHT22;10484;48.736;9.332;2023-04-15T12:29:00;13.80;1.00
20650;DHT22;10484;48.736;9.332;2023-04-15T12:31:26;13.80;1.00
20650;DHT22;10484;48.736;9.332;2023-04-15T12:33:55;13.70;1.00
20650;DHT22;10484;48.736;9.332;2023-04-15T12:36:21;13.70;1.00
20650;DHT22;10484;48.736;9.332;2023-04-15T12:38:47;13.70;1.00
20650;DHT22;10484;48.736;9.332;2023-04-15T12:41:12;13.60;1.00
20650;DHT22;10484;48.736;9.332;2023-04-15T12:43:38;13.60;1.00
20650;DHT22;10484;48.736;9.332;2023-04-15T12:46:03;13.60;1.00
20650;DHT22;10484;48.736;9.332;2023-04-15T12:48:29;13.40;1.00
20650;DHT22;10484;48.736;9.332;2023-04-15T12:50:55;13.20;1.00
20650;DHT22;10484;48.736;9.332;2023-04-15T12:53:20;13.10;1.00
20650;DHT22;10484;48.736;9.332;2023-04-15T12:55:46;12.90;1.00
20650;DHT22;10484;48.736;9.332;2023-04-15T12:58:12;12.80;1.00
20650;DHT22;10484;48.736;9.332;2023-04-15T13:00:38;12.80;1.00
20650;DHT22;10484;48.736;9.332;2023-04-15T13:03:03;12.80;1.00
20650;DHT22;10484;48.736;9.332;2023-04-15T13:05:29;12.60;1.00
20650;DHT22;10484;48.736;9.332;2023-04-15T13:07:55;12.40;1.00
20650;DHT22;10484;48.736;9.332;2023-04-15T13:10:20;12.30;1.00
20650;DHT22;10484;48.736;9.332;2023-04-15T13:12:48;12.30;1.00
20650;DHT22;10484;48.736;9.332;2023-04-15T13:15:14;12.40;1.00
20650;DHT22;10484;48.736;9.332;2023-04-15T13:17:43;12.40;1.00
20650;DHT22;10484;48.736;9.332;2023-04-15T13:20:09;12.50;1.00
20650;DHT22;10484;48.736;9.332;2023-04-15T13:22:35;12.60;1.00
20650;DHT22;10484;48.736;9.332;2023-04-15T13:25:00;12.70;1.00
20650;DHT22;10484;48.736;9.332;2023-04-15T13:27:26;12.80;1.00
20650;DHT22;10484;48.736;9.332;2023-04-15T13:29:52;12.80;1.00
20650;DHT22;10484;48.736;9.332;2023-04-15T13:32:18;12.90;1.00
20650;DHT22;10484;48.736;9.332;2023-04-15T13:34:43;12.90;1.00
20650;DHT22;10484;48.736;9.332;2023-04-15T13:37:09;12.90;1.00
20650;DHT22;10484;48.736;9.332;2023-04-15T13:39:35;12.90;1.00
20650;DHT22;10484;48.736;9.332;2023-04-15T13:42:01;13.00;1.00
20650;DHT22;10484;48.736;9.332;2023-04-15T13:44:27;13.00;1.00
20650;DHT22;10484;48.736;9.332;2023-04-15T13:46:52;13.00;1.00
20650;DHT22;10484;48.736;9.332;2023-04-15T13:49:18;13.00;1.00
20650;DHT22;10484;48.736;9.332;2023-04-15T13:51:43;13.00;1.00
20650;DHT22;10484;48.736;9.332;2023-04-15T13:54:09;13.00;1.00
20650;DHT22;10484;48.736;9.332;2023-04-15T13:56:35;13.00;1.00
20650;DHT22;10484;48.736;9.332;2023-04-15T13:59:01;13.10;1.00
20650;DHT22;10484;48.736;9.332;2023-04-15T14:01:27;13.00;1.00
20650;DHT22;10484;48.736;9.332;2023-04-15T14:03:53;13.10;1.00
20650;DHT22;10484;48.736;9.332;2023-04-15T14:06:19;13.00;1.00
20650;DHT22;10484;48.736;9.332;2023-04-15T14:08:45;13.00;1.00
20650;DHT22;10484;48.736;9.332;2023-04-15T14:11:11;12.90;1.00
20650;DHT22;10484;48.736;9.332;2023-04-15T14:13:36;12.80;1.00
20650;DHT22;10484;48.736;9.332;2023-04-15T14:16:02;12.70;1.00
20650;DHT22;10484;48.736;9.332;2023-04-15T14:18:28;12.60;1.00
20650;DHT22;10484;48.736;9.332;2023-04-15T14:20:55;12.60;1.00
20650;DHT22;10484;48.736;9.332;2023-04-15T14:23:21;12.50;1.00
20650;DHT22;10484;48.736;9.332;2023-04-15T14:25:46;12.50;1.00
20650;DHT22;10484;48.736;9.332;2023-04-15T14:28:12;12.50;1.00
20650;DHT22;10484;48.736;9.332;2023-04-15T14:30:38;12.60;1.00
20650;DHT22;10484;48.736;9.332;2023-04-15T14:33:03;12.60;1.00
20650;DHT22;10484;48.736;9.332;2023-04-15T14:35:29;12.60;1.00
20650;DHT22;10484;48.736;9.332;2023-04-15T14:37:55;12.60;1.00
20650;DHT22;10484;48.736;9.332;2023-04-15T14:40:21;12.60;1.00
20650;DHT22;10484;48.736;9.332;2023-04-15T14:42:47;12.60;1.00
20650;DHT22;10484;48.736;9.332;2023-04-15T14:45:12;12.60;1.00
20650;DHT22;10484;48.736;9.332;2023-04-15T14:47:38;12.50;1.00
20650;DHT22;10484;48.736;9.332;2023-04-15T14:50:04;12.50;1.00
20650;DHT22;10484;48.736;9.332;2023-04-15T14:52:30;12.40;1.00
20650;DHT22;10484;48.736;9.332;2023-04-15T14:55:06;12.50;1.00
20650;DHT22;10484;48.736;9.332;2023-04-15T14:57:32;12.50;1.00
20650;DHT22;10484;48.736;9.332;2023-04-15T14:59:57;12.60;1.00
20650;DHT22;10484;48.736;9.332;2023-04-15T15:02:23;12.60;1.00
20650;DHT22;10484;48.736;9.332;2023-04-15T15:04:49;12.50;1.00
20650;DHT22;10484;48.736;9.332;2023-04-15T15:07:15;12.40;1.00
20650;DHT22;10484;48.736;9.332;2023-04-15T15:09:40;12.40;1.00
20650;DHT22;10484;48.736;9.332;2023-04-15T15:12:06;12.30;1.00
20650;DHT22;10484;48.736;9.332;2023-04-15T15:14:31;12.30;1.00
20650;DHT22;10484;48.736;9.332;2023-04-15T15:16:57;12.30;1.00
20650;DHT22;10484;48.736;9.332;2023-04-15T15:19:23;12.30;1.00
20650;DHT22;10484;48.736;9.332;2023-04-15T15:21:49;12.30;1.00
20650;DHT22;10484;48.736;9.332;2023-04-15T15:24:15;12.30;1.00
20650;DHT22;10484;48.736;9.332;2023-04-15T15:26:40;12.30;1.00
20650;DHT22;10484;48.736;9.332;2023-04-15T15:29:06;12.30;1.00
20650;DHT22;10484;48.736;9.332;2023-04-15T15:31:34;12.30;1.00
20650;DHT22;10484;48.736;9.332;2023-04-15T15:34:00;12.20;1.00
20650;DHT22;10484;48.736;9.332;2023-04-15T15:36:25;12.20;1.00
20650;DHT22;10484;48.736;9.332;2023-04-15T15:38:54;12.10;1.00
20650;DHT22;10484;48.736;9.332;2023-04-15T15:41:19;12.10;1.00
20650;DHT22;10484;48.736;9.332;2023-04-15T15:43:45;12.10;1.00
20650;DHT22;10484;48.736;9.332;2023-04-15T15:46:11;12.10;1.00
20650;DHT22;10484;48.736;9.332;2023-04-15T15:48:36;12.10;1.00
20650;DHT22;10484;48.736;9.332;2023-04-15T15:51:02;12.10;1.00
20650;DHT22;10484;48.736;9.332;2023-04-15T15:53:28;12.00;1.00
20650;DHT22;10484;48.736;9.332;2023-04-15T15:55:54;11.90;1.00
20650;DHT22;10484;48.736;9.332;2023-04-15T15:58:19;11.90;1.00
20650;DHT22;10484;48.736;9.332;2023-04-15T16:00:45;12.00;1.00
20650;DHT22;10484;48.736;9.332;2023-04-15T16:03:11;12.00;1.00
20650;DHT22;10484;48.736;9.332;2023-04-15T16:05:37;12.10;1.00
20650;DHT22;10484;48.736;9.332;2023-04-15T16:08:03;12.00;1.00
20650;DHT22;10484;48.736;9.332;2023-04-15T16:10:28;12.00;1.00
20650;DHT22;10484;48.736;9.332;2023-04-15T16:12:54;12.00;1.00
20650;DHT22;10484;48.736;9.332;2023-04-15T16:15:21;11.90;1.00